createdAt,value
2023-01-27T00:01:33.687Z,21.50
2023-01-27T00:03:38.558Z,21.47
2023-01-27T00:05:40.811Z,20.13
2023-01-27T00:07:47.101Z,22.40
2023-01-27T00:09:49.262Z,21.77
2023-01-27T00:12:17.631Z,23.60
2023-01-27T00:14:19.801Z,21.90
2023-01-27T00:16:21.988Z,23.60
2023-01-27T00:18:24.719Z,27.43
2023-01-27T00:20:45.594Z,29.90
2023-01-27T00:23:06.283Z,24.97
2023-01-27T00:25:08.679Z,22.10
2023-01-27T00:27:11.173Z,17.67
2023-01-27T00:29:20.660Z,16.70
2023-01-27T00:31:41.506Z,16.70
2023-01-27T00:33:49.746Z,19.27
2023-01-27T00:36:07.231Z,19.47
2023-01-27T00:38:09.267Z,17.07
2023-01-27T00:40:13.698Z,18.10
2023-01-27T00:42:16.527Z,16.03
2023-01-27T00:44:18.818Z,17.53
2023-01-27T00:46:23.314Z,16.83
2023-01-27T00:48:25.559Z,19.00
2023-01-27T00:50:27.864Z,18.10
2023-01-27T00:52:30.118Z,19.17
2023-01-27T00:54:32.398Z,15.70
2023-01-27T00:56:35.271Z,17.67
2023-01-27T00:58:37.901Z,14.90
2023-01-27T01:00:40.592Z,18.23
2023-01-27T01:02:42.793Z,19.30
2023-01-27T01:04:45.072Z,17.17
2023-01-27T01:06:47.237Z,16.43
2023-01-27T01:08:55.581Z,16.00
2023-01-27T01:10:58.049Z,18.87
2023-01-27T01:13:00.262Z,15.63
2023-01-27T01:15:02.469Z,15.17
2023-01-27T01:17:04.681Z,14.67
2023-01-27T01:19:06.904Z,15.10
2023-01-27T01:21:11.228Z,16.67
2023-01-27T01:23:14.473Z,18.53
2023-01-27T01:25:16.746Z,17.27
2023-01-27T01:27:19.016Z,21.70
2023-01-27T01:29:21.193Z,22.37
2023-01-27T01:31:26.037Z,19.17
2023-01-27T01:33:28.495Z,18.33
2023-01-27T01:35:30.964Z,17.63
2023-01-27T01:37:33.303Z,20.47
2023-01-27T01:39:35.628Z,21.70
2023-01-27T01:41:37.963Z,17.43
2023-01-27T01:43:40.183Z,20.97
2023-01-27T01:45:50.475Z,17.43
2023-01-27T01:47:52.554Z,19.43
2023-01-27T01:49:54.943Z,21.10
2023-01-27T01:52:09.867Z,18.50
2023-01-27T01:54:14.883Z,26.27
2023-01-27T01:56:23.021Z,21.27
2023-01-27T01:58:28.399Z,17.47
2023-01-27T02:00:33.169Z,20.57
2023-01-27T02:02:37.175Z,22.47
2023-01-27T02:04:52.605Z,17.57
2023-01-27T02:07:10.671Z,19.10
2023-01-27T02:09:12.878Z,16.80
2023-01-27T02:11:15.045Z,17.60
2023-01-27T02:13:17.331Z,17.33
2023-01-27T02:15:21.707Z,19.40
2023-01-27T02:17:24.157Z,21.43
2023-01-27T02:19:49.289Z,17.63
2023-01-27T02:21:57.230Z,19.67
2023-01-27T02:24:02.160Z,20.73
2023-01-27T02:26:25.066Z,22.53
2023-01-27T02:28:29.515Z,15.57
2023-01-27T02:30:32.533Z,21.20
2023-01-27T02:32:34.949Z,19.80
2023-01-27T02:34:38.473Z,17.93
2023-01-27T02:36:56.662Z,17.83
2023-01-27T02:39:02.405Z,16.90
2023-01-27T02:41:37.698Z,20.33
2023-01-27T02:43:39.886Z,19.37
2023-01-27T02:45:42.638Z,19.00
2023-01-27T02:47:44.937Z,20.97
2023-01-27T02:49:47.223Z,19.43
2023-01-27T02:51:49.797Z,20.73
2023-01-27T02:53:52.220Z,22.77
2023-01-27T02:55:58.761Z,20.83
2023-01-27T02:58:00.895Z,17.47
2023-01-27T03:00:14.537Z,22.80
2023-01-27T03:02:23.082Z,19.97
2023-01-27T03:04:25.652Z,18.73
2023-01-27T03:06:28.098Z,19.77
2023-01-27T03:08:33.237Z,20.07
2023-01-27T03:10:35.552Z,20.37
2023-01-27T03:12:37.919Z,20.47
2023-01-27T03:14:58.828Z,19.47
2023-01-27T03:17:19.736Z,20.07
2023-01-27T03:19:22.419Z,20.87
2023-01-27T03:21:25.345Z,18.00
2023-01-27T03:23:28.072Z,18.47
2023-01-27T03:25:30.109Z,17.17
2023-01-27T03:27:32.635Z,16.30
2023-01-27T03:29:59.347Z,16.20
2023-01-27T03:32:01.988Z,15.63
2023-01-27T03:34:05.824Z,23.30
2023-01-27T03:36:32.987Z,16.43
2023-01-27T03:38:54.129Z,19.57
2023-01-27T03:41:15.173Z,17.53
2023-01-27T03:43:36.255Z,19.00
2023-01-27T03:46:00.227Z,18.33
2023-01-27T03:48:02.737Z,20.30
2023-01-27T03:50:11.346Z,20.63
2023-01-27T03:52:13.670Z,19.27
2023-01-27T03:54:16.130Z,21.40
2023-01-27T03:56:20.742Z,20.13
2023-01-27T03:58:26.085Z,26.20
2023-01-27T04:00:28.335Z,40.57
2023-01-27T04:02:52.351Z,47.13
2023-01-27T04:05:13.403Z,41.23
2023-01-27T04:07:20.649Z,34.57
2023-01-27T04:09:28.428Z,37.90
2023-01-27T04:11:49.527Z,60.30
2023-01-27T04:13:51.968Z,45.93
2023-01-27T04:15:57.006Z,52.67
2023-01-27T04:17:59.541Z,48.90
2023-01-27T04:20:03.575Z,51.10
2023-01-27T04:22:06.478Z,49.90
2023-01-27T04:24:19.291Z,37.30
2023-01-27T04:26:22.621Z,35.70
2023-01-27T04:28:41.803Z,36.27
2023-01-27T04:30:46.045Z,42.27
2023-01-27T04:32:48.424Z,36.80
2023-01-27T04:34:51.189Z,32.87
2023-01-27T04:36:54.256Z,35.87
2023-01-27T04:38:56.556Z,35.23
2023-01-27T04:40:58.580Z,36.03
2023-01-27T04:43:00.627Z,29.63
2023-01-27T04:45:02.880Z,27.43
2023-01-27T04:47:05.141Z,30.73
2023-01-27T04:49:08.280Z,27.23
2023-01-27T04:51:10.345Z,25.43
2023-01-27T04:53:12.590Z,23.97
2023-01-27T04:55:15.693Z,24.80
2023-01-27T04:57:18.581Z,24.93
2023-01-27T04:59:20.816Z,23.60
2023-01-27T05:01:23.310Z,34.73
2023-01-27T05:03:25.711Z,32.93
2023-01-27T05:05:27.971Z,27.70
2023-01-27T05:07:33.141Z,24.10
2023-01-27T05:09:35.533Z,23.10
2023-01-27T05:11:37.565Z,32.27
2023-01-27T05:13:41.057Z,33.03
2023-01-27T05:15:43.048Z,29.70
2023-01-27T05:17:45.460Z,27.33
2023-01-27T05:19:52.183Z,27.40
2023-01-27T05:21:54.385Z,29.57
2023-01-27T05:23:56.756Z,24.70
2023-01-27T05:26:03.947Z,25.80
2023-01-27T05:28:06.158Z,25.50
2023-01-27T05:30:08.876Z,24.60
2023-01-27T05:32:11.359Z,26.90
2023-01-27T05:34:13.439Z,26.57
2023-01-27T05:36:17.869Z,23.93
2023-01-27T05:38:20.274Z,25.73
2023-01-27T05:40:22.334Z,23.93
2023-01-27T05:42:24.302Z,25.30
2023-01-27T05:44:26.229Z,22.30
2023-01-27T05:46:33.843Z,22.20
2023-01-27T05:48:39.011Z,25.97
2023-01-27T05:50:41.177Z,27.27
2023-01-27T05:52:43.260Z,27.23
2023-01-27T05:54:45.572Z,25.07
2023-01-27T05:56:47.656Z,26.10
2023-01-27T05:58:50.145Z,25.47
2023-01-27T06:00:53.147Z,28.50
2023-01-27T06:02:55.294Z,26.43
2023-01-27T06:04:57.486Z,24.47
2023-01-27T06:07:01.028Z,32.17
2023-01-27T06:09:03.619Z,31.53
2023-01-27T06:11:06.360Z,33.10
2023-01-27T06:13:08.446Z,26.83
2023-01-27T06:15:11.914Z,24.53
2023-01-27T06:17:15.336Z,28.53
2023-01-27T06:19:17.488Z,23.57
2023-01-27T06:21:21.151Z,26.77
2023-01-27T06:23:23.387Z,25.67
2023-01-27T06:25:25.458Z,24.83
2023-01-27T06:27:27.646Z,21.40
2023-01-27T06:29:31.122Z,23.90
2023-01-27T06:31:33.955Z,25.20
2023-01-27T06:33:37.041Z,28.07
2023-01-27T06:35:41.059Z,37.67
2023-01-27T06:37:45.310Z,30.50
2023-01-27T06:39:52.195Z,32.53
2023-01-27T06:41:56.701Z,29.63
2023-01-27T06:43:58.912Z,30.50
2023-01-27T06:46:03.003Z,34.07
2023-01-27T06:48:08.690Z,34.97
2023-01-27T06:50:12.395Z,34.00
2023-01-27T06:52:17.083Z,31.60
2023-01-27T06:54:19.622Z,32.70
2023-01-27T06:56:21.815Z,27.87
2023-01-27T06:58:24.126Z,27.80
2023-01-27T07:00:26.608Z,25.80
2023-01-27T07:02:28.721Z,24.77
2023-01-27T07:04:31.375Z,23.80
2023-01-27T07:06:33.714Z,24.50
2023-01-27T07:08:35.974Z,30.30
2023-01-27T07:10:39.187Z,28.20
2023-01-27T07:12:41.438Z,26.07
2023-01-27T07:14:43.658Z,27.07
2023-01-27T07:24:01.463Z,40.40
2023-01-27T07:26:07.811Z,27.00
2023-01-27T07:28:18.083Z,27.53
2023-01-27T07:30:20.862Z,30.47
2023-01-27T07:32:23.407Z,26.77
2023-01-27T07:34:25.583Z,26.17
2023-01-27T07:36:27.675Z,29.17
2023-01-27T07:38:29.811Z,27.67
2023-01-27T07:40:32.047Z,29.03
2023-01-27T07:42:34.106Z,27.77
2023-01-27T07:44:36.249Z,27.03
2023-01-27T07:46:38.343Z,25.47
2023-01-27T07:48:40.824Z,22.23
2023-01-27T07:50:42.974Z,20.50
2023-01-27T07:52:44.940Z,24.83
2023-01-27T07:54:47.222Z,21.70
2023-01-27T07:56:49.524Z,21.70
2023-01-27T07:58:56.427Z,27.13
2023-01-27T08:00:58.523Z,27.70
2023-01-27T08:03:02.610Z,27.53
2023-01-27T08:05:04.904Z,27.93
2023-01-27T08:07:07.386Z,26.07
2023-01-27T08:09:09.668Z,23.70
2023-01-27T08:11:14.454Z,23.77
2023-01-27T08:13:16.687Z,25.67
2023-01-27T08:15:19.388Z,29.10
2023-01-27T08:17:21.647Z,27.67
2023-01-27T08:19:24.090Z,29.33
2023-01-27T08:21:27.385Z,28.07
2023-01-27T08:23:29.942Z,29.60
2023-01-27T08:25:33.017Z,23.50
2023-01-27T08:27:35.353Z,26.00
2023-01-27T08:29:40.605Z,28.87
2023-01-27T08:31:43.004Z,23.63
2023-01-27T08:33:49.958Z,22.83
2023-01-27T08:35:54.900Z,29.93
2023-01-27T08:37:56.933Z,33.07
2023-01-27T08:39:58.955Z,24.27
2023-01-27T08:42:03.414Z,26.80
2023-01-27T08:44:06.157Z,22.70
2023-01-27T08:46:09.600Z,21.60
2023-01-27T08:48:12.419Z,23.93
2023-01-27T08:50:14.772Z,21.50
2023-01-27T08:52:19.931Z,28.20
2023-01-27T08:54:22.283Z,24.73
2023-01-27T08:56:24.712Z,47.93
2023-01-27T08:58:27.057Z,48.70
2023-01-27T09:00:29.192Z,42.27
2023-01-27T09:02:31.911Z,35.97
2023-01-27T09:04:35.911Z,38.67
2023-01-27T09:06:38.282Z,38.73
2023-01-27T09:08:41.672Z,35.30
2023-01-27T09:10:43.855Z,29.17
2023-01-27T09:12:46.012Z,29.43
2023-01-27T09:14:48.176Z,21.53
2023-01-27T09:16:50.228Z,19.87
2023-01-27T09:18:52.758Z,23.20
2023-01-27T09:20:55.170Z,15.57
2023-01-27T09:22:57.889Z,12.77
2023-01-27T09:25:00.541Z,13.60
2023-01-27T09:27:02.676Z,17.47
2023-01-27T09:29:04.713Z,21.47
2023-01-27T09:31:09.743Z,15.00
2023-01-27T09:33:16.056Z,20.63
2023-01-27T09:35:18.581Z,13.63
2023-01-27T09:37:21.101Z,25.57
2023-01-27T09:39:24.309Z,20.37
2023-01-27T09:41:38.358Z,13.93
2023-01-27T09:44:08.281Z,10.97
2023-01-27T09:46:35.152Z,14.23
2023-01-27T09:48:43.120Z,12.13
2023-01-27T09:51:25.322Z,19.70
2023-01-27T09:54:12.049Z,48.07
2023-01-27T09:56:28.617Z,31.40
2023-01-27T09:58:42.611Z,56.93
2023-01-27T10:01:18.631Z,60.60
2023-01-27T10:03:43.524Z,49.70
2023-01-27T10:05:53.311Z,81.40
2023-01-27T10:08:07.656Z,65.80
2023-01-27T10:10:37.685Z,52.13
2023-01-27T10:12:56.909Z,33.90
2023-01-27T10:15:07.781Z,26.83
2023-01-27T10:17:31.461Z,23.30
2023-01-27T10:19:51.773Z,26.87
2023-01-27T10:22:12.806Z,24.23
2023-01-27T10:24:48.083Z,21.13
2023-01-27T10:26:54.887Z,24.73
2023-01-27T10:29:30.865Z,25.83
2023-01-27T10:31:37.539Z,29.87
2023-01-27T10:33:54.578Z,21.23
2023-01-27T10:36:08.000Z,25.87
2023-01-27T10:38:13.149Z,59.27
2023-01-27T10:40:50.117Z,47.47
2023-01-27T10:42:58.601Z,52.67
2023-01-27T10:45:06.804Z,53.47
2023-01-27T10:47:16.002Z,50.13
2023-01-27T10:49:36.074Z,48.83
2023-01-27T10:51:45.896Z,46.40
2023-01-27T10:54:04.441Z,25.60
2023-01-27T10:56:18.258Z,37.87
2023-01-27T10:58:48.347Z,37.90
2023-01-27T11:01:19.943Z,30.57
2023-01-27T11:03:33.904Z,27.33
2023-01-27T11:05:42.529Z,22.47
2023-01-27T11:08:00.210Z,36.77
2023-01-27T11:10:14.386Z,49.83
2023-01-27T11:12:21.245Z,36.93
2023-01-27T11:14:32.635Z,26.63
2023-01-27T11:16:40.617Z,15.27
2023-01-27T11:18:46.454Z,8.40
2023-01-27T11:20:55.413Z,8.27
2023-01-27T11:23:10.089Z,4.20
2023-01-27T11:25:22.668Z,3.90
2023-01-27T11:27:33.525Z,5.43
2023-01-27T11:30:01.582Z,5.33
2023-01-27T11:32:25.336Z,4.63
2023-01-27T11:34:36.448Z,6.80
2023-01-27T11:36:38.977Z,6.63
2023-01-27T11:38:41.073Z,6.60
2023-01-27T11:40:45.618Z,5.53
2023-01-27T11:42:49.641Z,4.77
2023-01-27T11:44:56.387Z,4.60
2023-01-27T11:46:58.961Z,5.87
2023-01-27T11:49:02.682Z,6.67
2023-01-27T11:51:06.078Z,8.23
2023-01-27T11:53:21.403Z,10.47
2023-01-27T11:55:28.103Z,10.43
2023-01-27T11:57:30.491Z,8.63
2023-01-27T11:59:37.969Z,13.43
2023-01-27T12:01:48.446Z,9.67
2023-01-27T12:04:08.278Z,9.87
2023-01-27T12:06:27.198Z,8.73
2023-01-27T12:08:46.837Z,11.83
2023-01-27T12:10:48.813Z,11.73
2023-01-27T12:12:51.362Z,7.57
2023-01-27T12:14:55.003Z,5.73
2023-01-27T12:17:04.141Z,7.13
2023-01-27T12:19:22.991Z,9.33
2023-01-27T12:21:38.439Z,7.87
2023-01-27T12:23:52.915Z,6.00
2023-01-27T12:26:09.278Z,7.50
2023-01-27T12:28:49.719Z,8.93
2023-01-27T12:30:54.538Z,12.63
2023-01-27T12:32:59.630Z,15.47
2023-01-27T12:35:03.251Z,13.37
2023-01-27T12:37:08.387Z,12.27
2023-01-27T12:39:39.874Z,22.63
2023-01-27T12:41:43.235Z,20.57
2023-01-27T12:44:01.829Z,8.83
2023-01-27T12:46:08.804Z,9.33
2023-01-27T12:48:14.003Z,7.90
2023-01-27T12:50:33.653Z,10.33
2023-01-27T12:52:35.674Z,9.50
2023-01-27T12:54:38.028Z,6.77
2023-01-27T12:56:40.230Z,17.30
2023-01-27T12:58:55.785Z,13.77
2023-01-27T13:01:00.282Z,9.97
2023-01-27T13:03:12.486Z,8.50
2023-01-27T13:05:19.293Z,9.37
2023-01-27T13:07:28.478Z,5.70
2023-01-27T13:09:45.578Z,8.37
2023-01-27T13:11:47.830Z,7.17
2023-01-27T13:13:51.540Z,7.33
2023-01-27T13:16:14.997Z,10.07
2023-01-27T13:18:23.923Z,9.53
2023-01-27T13:20:43.413Z,10.67
2023-01-27T13:23:24.255Z,14.70
2023-01-27T13:25:39.243Z,15.23
2023-01-27T13:27:41.727Z,13.80
2023-01-27T13:29:54.855Z,14.40
2023-01-27T13:32:04.389Z,15.40
2023-01-27T13:34:18.905Z,14.33
2023-01-27T13:36:28.263Z,13.60
2023-01-27T13:38:52.802Z,12.27
2023-01-27T13:40:54.796Z,14.47
2023-01-27T13:43:09.323Z,15.27
2023-01-27T13:45:22.053Z,13.03
2023-01-27T13:47:29.189Z,14.87
2023-01-27T13:49:50.378Z,16.93
2023-01-27T13:51:52.470Z,21.67
2023-01-27T13:54:03.911Z,20.33
2023-01-27T13:56:06.041Z,17.17
2023-01-27T13:58:39.703Z,16.27
2023-01-27T14:01:01.876Z,18.73
2023-01-27T14:03:46.250Z,16.43
2023-01-27T14:05:57.058Z,19.33
2023-01-27T14:08:20.724Z,17.27
2023-01-27T14:10:35.324Z,19.67
2023-01-27T14:12:58.128Z,16.40
2023-01-27T14:15:21.189Z,16.97
2023-01-27T14:17:30.340Z,13.53
2023-01-27T14:20:01.450Z,12.50
2023-01-27T14:22:33.895Z,12.13
2023-01-27T14:24:53.098Z,10.27
2023-01-27T14:27:10.264Z,12.40
2023-01-27T14:29:33.900Z,15.13
2023-01-27T14:31:56.550Z,14.90
2023-01-27T14:34:34.095Z,27.70
2023-01-27T14:36:45.083Z,34.17
2023-01-27T14:39:01.101Z,28.27
2023-01-27T14:41:18.322Z,19.80
2023-01-27T14:43:39.559Z,21.83
2023-01-27T14:45:50.907Z,25.90
2023-01-27T14:48:17.385Z,26.50
2023-01-27T14:50:26.610Z,24.00
2023-01-27T14:53:20.795Z,27.87
2023-01-27T14:55:33.511Z,48.43
2023-01-27T14:57:55.984Z,48.83
2023-01-27T15:00:33.178Z,45.07
2023-01-27T15:03:03.096Z,34.37
2023-01-27T15:05:31.164Z,24.23
2023-01-27T15:07:41.854Z,22.33
2023-01-27T15:10:10.793Z,34.43
2023-01-27T15:12:37.944Z,33.80
2023-01-27T15:14:59.374Z,27.33
2023-01-27T15:17:14.773Z,25.23
2023-01-27T15:19:44.809Z,20.30
2023-01-27T15:22:34.144Z,17.47
2023-01-27T15:24:59.348Z,14.13
2023-01-27T15:27:04.333Z,17.63
2023-01-27T15:29:07.552Z,18.00
2023-01-27T15:31:16.733Z,23.47
2023-01-27T15:33:53.003Z,21.10
2023-01-27T15:36:27.119Z,28.03
2023-01-27T15:38:34.629Z,21.73
2023-01-27T15:41:21.505Z,25.03
2023-01-27T15:43:25.663Z,21.63
2023-01-27T15:45:38.029Z,21.40
2023-01-27T15:47:41.882Z,19.20
2023-01-27T15:49:48.540Z,21.33
2023-01-27T15:51:54.800Z,15.43
2023-01-27T15:54:00.240Z,21.37
2023-01-27T15:56:03.230Z,20.33
2023-01-27T15:58:54.840Z,22.53
2023-01-27T16:00:58.869Z,22.67
2023-01-27T16:03:04.904Z,25.93
2023-01-27T16:05:27.133Z,23.00
2023-01-27T16:07:32.951Z,22.07
2023-01-27T16:09:46.126Z,24.23
2023-01-27T16:12:02.615Z,24.23
2023-01-27T16:14:17.437Z,27.00
2023-01-27T16:16:19.524Z,25.47
2023-01-27T16:18:26.469Z,28.17
2023-01-27T16:20:54.758Z,38.40
2023-01-27T16:23:02.808Z,37.50
2023-01-27T16:25:17.677Z,33.33
2023-01-27T16:27:52.224Z,33.90
2023-01-27T16:30:22.548Z,35.27
2023-01-27T16:32:35.696Z,37.97
2023-01-27T16:34:46.853Z,32.73
2023-01-27T16:37:02.150Z,42.73
2023-01-27T16:39:26.082Z,57.47
2023-01-27T16:41:30.957Z,62.87
2023-01-27T16:43:43.611Z,44.97
2023-01-27T16:45:49.270Z,39.90
2023-01-27T16:48:05.647Z,57.70
2023-01-27T16:50:45.889Z,55.63
2023-01-27T16:52:48.072Z,55.97
2023-01-27T16:54:52.484Z,50.03
2023-01-27T16:56:55.150Z,48.90
2023-01-27T16:59:02.140Z,47.80
2023-01-27T17:01:04.928Z,42.97
2023-01-27T17:03:16.515Z,41.20
2023-01-27T17:05:19.960Z,40.10
2023-01-27T17:07:22.623Z,36.60
2023-01-27T17:09:32.139Z,38.33
2023-01-27T17:11:34.309Z,40.93
2023-01-27T17:14:01.305Z,35.40
2023-01-27T17:16:06.467Z,36.83
2023-01-27T17:18:11.960Z,41.47
2023-01-27T17:20:23.565Z,43.47
2023-01-27T17:22:42.452Z,44.03
2023-01-27T17:24:52.970Z,49.23
2023-01-27T17:27:05.794Z,44.83
2023-01-27T17:29:07.698Z,53.70
2023-01-27T17:31:17.832Z,63.93
2023-01-27T17:33:22.023Z,56.93
2023-01-27T17:35:30.769Z,61.83
2023-01-27T17:37:33.478Z,64.40
2023-01-27T17:39:38.123Z,68.10
2023-01-27T17:41:40.128Z,61.77
2023-01-27T17:43:44.899Z,58.57
2023-01-27T17:45:47.617Z,57.40
2023-01-27T17:47:50.525Z,50.17
2023-01-27T17:49:52.624Z,60.07
2023-01-27T17:51:59.579Z,55.43
2023-01-27T17:54:13.624Z,46.30
2023-01-27T17:56:23.149Z,45.90
2023-01-27T17:58:29.531Z,47.40
2023-01-27T18:00:40.325Z,52.17
2023-01-27T18:02:54.104Z,46.73
2023-01-27T18:05:04.520Z,40.80
2023-01-27T18:07:06.594Z,47.37
2023-01-27T18:09:27.106Z,39.90
2023-01-27T18:11:32.197Z,36.50
2023-01-27T18:13:37.407Z,37.30
2023-01-27T18:15:42.855Z,36.23
2023-01-27T18:17:57.709Z,42.67
2023-01-27T18:19:59.871Z,52.70
2023-01-27T18:22:07.308Z,48.70
2023-01-27T18:24:21.308Z,37.67
2023-01-27T18:26:43.226Z,31.50
2023-01-27T18:28:49.053Z,35.03
2023-01-27T18:30:51.556Z,30.03
2023-01-27T18:33:01.826Z,28.63
2023-01-27T18:35:27.949Z,37.00
2023-01-27T18:37:33.291Z,33.80
2023-01-27T18:39:38.773Z,26.97
2023-01-27T18:41:47.287Z,26.37
2023-01-27T18:43:49.501Z,30.17
2023-01-27T18:45:51.477Z,28.53
2023-01-27T18:47:54.172Z,33.87
2023-01-27T18:49:56.399Z,32.70
2023-01-27T18:51:58.354Z,78.27
2023-01-27T18:54:00.560Z,119.77
2023-01-27T18:56:04.549Z,119.07
2023-01-27T18:58:06.684Z,81.17
2023-01-27T19:00:11.926Z,64.10
2023-01-27T19:02:18.480Z,110.60
2023-01-27T19:04:22.036Z,89.40
2023-01-27T19:06:24.121Z,108.37
2023-01-27T19:08:27.363Z,108.67
2023-01-27T19:10:32.334Z,137.13
2023-01-27T19:12:34.478Z,120.00
2023-01-27T19:14:37.096Z,131.77
2023-01-27T19:16:39.194Z,104.10
2023-01-27T19:18:42.197Z,102.33
2023-01-27T19:20:44.264Z,84.87
2023-01-27T19:22:47.875Z,71.93
2023-01-27T19:24:50.740Z,74.23
2023-01-27T19:26:52.759Z,78.47
2023-01-27T19:28:57.359Z,76.73
2023-01-27T19:31:00.279Z,57.67
2023-01-27T19:33:03.203Z,61.07
2023-01-27T19:35:05.865Z,59.70
2023-01-27T19:37:18.581Z,55.50
2023-01-27T19:39:20.759Z,59.30
2023-01-27T19:41:22.908Z,54.73
2023-01-27T19:43:24.950Z,58.43
2023-01-27T19:45:28.325Z,49.77
2023-01-27T19:47:30.236Z,50.20
2023-01-27T19:49:32.300Z,43.90
2023-01-27T19:51:34.444Z,46.83
2023-01-27T19:53:38.660Z,44.30
2023-01-27T19:55:41.326Z,48.40
2023-01-27T19:57:44.606Z,42.33
2023-01-27T19:59:46.862Z,51.53
2023-01-27T20:01:49.147Z,111.20
2023-01-27T20:03:52.365Z,101.83
2023-01-27T20:05:54.493Z,90.13
2023-01-27T20:07:58.602Z,86.47
2023-01-27T20:10:00.673Z,75.33
2023-01-27T20:12:02.734Z,83.70
2023-01-27T20:14:19.384Z,98.57
2023-01-27T20:16:22.775Z,67.00
2023-01-27T20:18:24.874Z,68.67
2023-01-27T20:20:27.649Z,56.33
2023-01-27T20:22:30.003Z,44.63
2023-01-27T20:24:32.246Z,43.37
2023-01-27T20:26:35.034Z,47.93
2023-01-27T20:28:40.003Z,44.33
2023-01-27T20:30:43.317Z,43.73
2023-01-27T20:32:45.590Z,49.90
2023-01-27T20:34:47.985Z,37.00
2023-01-27T20:36:49.968Z,38.57
2023-01-27T20:38:53.088Z,39.50
2023-01-27T20:40:55.157Z,39.60
2023-01-27T20:42:57.375Z,34.53
2023-01-27T20:44:59.503Z,34.80
2023-01-27T20:47:01.635Z,39.97
2023-01-27T20:49:03.688Z,33.83
2023-01-27T20:51:09.384Z,35.17
2023-01-27T20:53:11.401Z,38.13
2023-01-27T20:55:14.933Z,44.57
2023-01-27T20:57:20.357Z,40.37
2023-01-27T20:59:22.399Z,39.63
2023-01-27T21:01:24.641Z,44.50
2023-01-27T21:03:27.002Z,46.50
2023-01-27T21:05:29.085Z,50.47
2023-01-27T21:07:31.273Z,38.30
2023-01-27T21:09:33.240Z,39.27
2023-01-27T21:11:35.299Z,42.73
2023-01-27T21:13:37.851Z,40.20
2023-01-27T21:15:47.437Z,46.30
2023-01-27T21:17:50.295Z,50.67
2023-01-27T21:19:52.506Z,52.33
2023-01-27T21:21:54.790Z,53.93
2023-01-27T21:24:00.599Z,49.07
2023-01-27T21:26:09.677Z,50.50
2023-01-27T21:28:11.868Z,41.60
2023-01-27T21:30:14.241Z,44.27
2023-01-27T21:32:16.457Z,56.93
2023-01-27T21:34:18.544Z,69.97
2023-01-27T21:36:20.545Z,89.10
2023-01-27T21:38:22.689Z,83.50
2023-01-27T21:40:25.288Z,70.23
2023-01-27T21:42:46.388Z,71.87
2023-01-27T21:45:07.040Z,64.30
2023-01-27T21:47:11.778Z,59.60
2023-01-27T21:49:14.559Z,55.50
2023-01-27T21:51:17.082Z,56.13
2023-01-27T21:53:19.183Z,59.60
2023-01-27T21:55:27.404Z,58.23
2023-01-27T21:57:29.899Z,65.87
2023-01-27T21:59:34.433Z,58.13
2023-01-27T22:01:36.627Z,55.43
2023-01-27T22:03:38.941Z,52.20
2023-01-27T22:05:41.238Z,59.63
2023-01-27T22:07:43.283Z,74.27
2023-01-27T22:09:45.642Z,63.40
2023-01-27T22:11:48.085Z,61.43
2023-01-27T22:13:50.222Z,64.13
2023-01-27T22:15:52.616Z,63.20
2023-01-27T22:17:55.857Z,59.67
2023-01-27T22:19:57.951Z,50.03
2023-01-27T22:22:00.048Z,49.13
2023-01-27T22:24:02.814Z,51.83
2023-01-27T22:26:09.200Z,53.33
2023-01-27T22:28:11.359Z,45.37
2023-01-27T22:30:15.883Z,51.77
2023-01-27T22:32:18.211Z,53.30
2023-01-27T22:34:20.752Z,49.37
2023-01-27T22:36:23.313Z,56.63
2023-01-27T22:38:25.636Z,45.63
2023-01-27T22:40:28.353Z,44.20
2023-01-27T22:42:30.579Z,44.87
2023-01-27T22:44:32.927Z,44.17
2023-01-27T22:46:35.328Z,52.40
2023-01-27T22:48:37.806Z,52.37
2023-01-27T22:50:40.849Z,47.20
2023-01-27T22:52:43.109Z,45.47
2023-01-27T22:54:45.536Z,47.77
2023-01-27T22:56:47.923Z,62.90
2023-01-27T22:58:50.296Z,60.57
2023-01-27T23:00:52.927Z,46.60
2023-01-27T23:02:55.133Z,39.13
2023-01-27T23:04:57.873Z,47.60
2023-01-27T23:07:00.083Z,39.10
2023-01-27T23:09:02.205Z,37.47
2023-01-27T23:11:06.899Z,37.07
2023-01-27T23:13:09.052Z,32.97
2023-01-27T23:15:12.335Z,34.87
2023-01-27T23:17:15.016Z,36.20
2023-01-27T23:19:17.673Z,34.30
2023-01-27T23:21:19.655Z,31.93
2023-01-27T23:23:23.439Z,32.70
2023-01-27T23:25:25.907Z,36.13
2023-01-27T23:27:29.094Z,33.17
2023-01-27T23:29:31.788Z,35.50
2023-01-27T23:31:34.316Z,31.90
2023-01-27T23:33:41.128Z,38.37
2023-01-27T23:35:44.035Z,31.30
2023-01-27T23:37:46.332Z,32.53
2023-01-27T23:39:49.906Z,32.80
2023-01-27T23:41:52.359Z,37.90
2023-01-27T23:43:56.317Z,33.43
2023-01-27T23:45:59.212Z,26.47
2023-01-27T23:48:01.473Z,31.07
2023-01-27T23:50:06.275Z,25.13
2023-01-27T23:52:09.209Z,27.20
2023-01-27T23:54:11.379Z,29.50
2023-01-27T23:56:16.296Z,28.47
2023-01-27T23:58:19.156Z,33.07
